sensor_id;sensor_type;location;lat;lon;timestamp;pressure;altitude;pressure_sealevel;temperature;humidity
40918;BME280;26644;50.248;19.032;2023-05-06T00:00:24;98310.91;;;11.26;54.37
40918;BME280;26644;50.248;19.032;2023-05-06T00:03:29;98308.47;;;11.25;54.52
40918;BME280;26644;50.248;19.032;2023-05-06T00:06:35;98313.66;;;11.26;54.67
40918;BME280;26644;50.248;19.032;2023-05-06T00:09:41;98308.22;;;11.21;54.85
40918;BME280;26644;50.248;19.032;2023-05-06T00:12:49;98306.59;;;11.20;54.87
40918;BME280;26644;50.248;19.032;2023-05-06T00:15:53;98305.25;;;11.13;55.15
40918;BME280;26644;50.248;19.032;2023-05-06T00:18:59;98305.25;;;11.13;55.15
40918;BME280;26644;50.248;19.032;2023-05-06T00:22:04;98300.03;;;11.16;55.03
40918;BME280;26644;50.248;19.032;2023-05-06T00:25:09;98303.28;;;11.18;55.05
40918;BME280;26644;50.248;19.032;2023-05-06T00:28:16;98300.06;;;11.11;55.39
40918;BME280;26644;50.248;19.032;2023-05-06T00:31:21;98289.63;;;11.08;55.13
40918;BME280;26644;50.248;19.032;2023-05-06T00:34:25;98280.28;;;11.09;55.46
40918;BME280;26644;50.248;19.032;2023-05-06T00:37:31;98289.63;;;11.08;55.55
40918;BME280;26644;50.248;19.032;2023-05-06T00:40:35;98283.91;;;11.04;55.49
40918;BME280;26644;50.248;19.032;2023-05-06T00:43:44;98285.03;;;10.98;55.73
40918;BME280;26644;50.248;19.032;2023-05-06T00:46:49;98280.34;;;10.99;55.68
40918;BME280;26644;50.248;19.032;2023-05-06T00:49:55;98281.22;;;10.94;55.99
40918;BME280;26644;50.248;19.032;2023-05-06T00:53:02;98273.56;;;10.91;56.16
40918;BME280;26644;50.248;19.032;2023-05-06T00:56:09;98270.28;;;10.89;56.22
40918;BME280;26644;50.248;19.032;2023-05-06T00:59:16;98272.53;;;10.82;56.12
40918;BME280;26644;50.248;19.032;2023-05-06T01:02:22;98276.38;;;10.81;56.46
40918;BME280;26644;50.248;19.032;2023-05-06T01:05:34;98277.19;;;10.81;56.60
40918;BME280;26644;50.248;19.032;2023-05-06T01:08:56;98273.38;;;10.77;56.75
40918;BME280;26644;50.248;19.032;2023-05-06T01:12:14;98275.84;;;10.73;56.78
40918;BME280;26644;50.248;19.032;2023-05-06T01:15:32;98277.31;;;10.66;57.30
40918;BME280;26644;50.248;19.032;2023-05-06T01:18:43;98272.66;;;10.56;57.57
40918;BME280;26644;50.248;19.032;2023-05-06T01:21:53;98272.94;;;10.49;57.75
40918;BME280;26644;50.248;19.032;2023-05-06T01:25:01;98279.81;;;10.52;57.69
40918;BME280;26644;50.248;19.032;2023-05-06T01:28:08;98276.25;;;10.51;57.75
40918;BME280;26644;50.248;19.032;2023-05-06T01:31:22;98279.53;;;10.48;58.02
40918;BME280;26644;50.248;19.032;2023-05-06T01:34:39;98272.69;;;10.45;58.05
40918;BME280;26644;50.248;19.032;2023-05-06T01:37:58;98279.31;;;10.44;58.25
40918;BME280;26644;50.248;19.032;2023-05-06T01:41:16;98283.72;;;10.40;58.38
40918;BME280;26644;50.248;19.032;2023-05-06T01:44:22;98280.44;;;10.33;58.54
40918;BME280;26644;50.248;19.032;2023-05-06T01:47:32;98273.06;;;10.28;58.94
40918;BME280;26644;50.248;19.032;2023-05-06T01:50:38;98261.84;;;10.20;59.30
40918;BME280;26644;50.248;19.032;2023-05-06T01:53:43;98270.06;;;10.20;59.47
40918;BME280;26644;50.248;19.032;2023-05-06T01:56:50;98267.34;;;10.15;59.83
40918;BME280;26644;50.248;19.032;2023-05-06T01:59:55;98248.44;;;10.08;59.67
40918;BME280;26644;50.248;19.032;2023-05-06T02:03:00;98256.16;;;10.06;59.95
40918;BME280;26644;50.248;19.032;2023-05-06T02:06:05;98251.78;;;10.05;59.94
40918;BME280;26644;50.248;19.032;2023-05-06T02:09:16;98252.56;;;10.05;60.01
40918;BME280;26644;50.248;19.032;2023-05-06T02:12:30;98247.09;;;10.05;60.15
40918;BME280;26644;50.248;19.032;2023-05-06T02:15:34;98239.16;;;9.99;60.10
40918;BME280;26644;50.248;19.032;2023-05-06T02:18:42;98240.25;;;10.03;60.29
40918;BME280;26644;50.248;19.032;2023-05-06T02:21:46;98246.00;;;10.01;60.17
40918;BME280;26644;50.248;19.032;2023-05-06T02:24:51;98239.44;;;10.02;60.29
40918;BME280;26644;50.248;19.032;2023-05-06T02:27:58;98238.56;;;10.07;60.26
40918;BME280;26644;50.248;19.032;2023-05-06T02:31:03;98241.59;;;10.05;60.34
40918;BME280;26644;50.248;19.032;2023-05-06T02:34:08;98244.91;;;10.07;60.30
40918;BME280;26644;50.248;19.032;2023-05-06T02:37:14;98231.72;;;10.04;60.01
40918;BME280;26644;50.248;19.032;2023-05-06T02:40:18;98239.97;;;10.04;60.23
40918;BME280;26644;50.248;19.032;2023-05-06T02:43:26;98237.50;;;10.03;60.53
40918;BME280;26644;50.248;19.032;2023-05-06T02:46:31;98233.94;;;10.02;60.33
40918;BME280;26644;50.248;19.032;2023-05-06T02:49:36;98226.25;;;9.99;60.50
40918;BME280;26644;50.248;19.032;2023-05-06T02:52:41;98226.03;;;9.95;60.82
40918;BME280;26644;50.248;19.032;2023-05-06T02:55:46;98221.38;;;9.86;60.74
40918;BME280;26644;50.248;19.032;2023-05-06T02:58:53;98230.72;;;9.85;61.00
40918;BME280;26644;50.248;19.032;2023-05-06T03:01:58;98222.25;;;9.76;61.18
40918;BME280;26644;50.248;19.032;2023-05-06T03:05:03;98236.75;;;9.82;61.24
40918;BME280;26644;50.248;19.032;2023-05-06T03:08:09;98238.69;;;9.81;61.17
40918;BME280;26644;50.248;19.032;2023-05-06T03:11:14;98231.56;;;9.75;61.16
40918;BME280;26644;50.248;19.032;2023-05-06T03:14:22;98232.66;;;9.79;61.40
40918;BME280;26644;50.248;19.032;2023-05-06T03:17:27;98231.28;;;9.82;61.20
40918;BME280;26644;50.248;19.032;2023-05-06T03:20:32;98224.69;;;9.83;61.36
40918;BME280;26644;50.248;19.032;2023-05-06T03:23:38;98224.13;;;9.81;61.35
40918;BME280;26644;50.248;19.032;2023-05-06T03:26:43;98224.69;;;9.83;61.51
40918;BME280;26644;50.248;19.032;2023-05-06T03:29:50;98216.75;;;9.81;61.23
40918;BME280;26644;50.248;19.032;2023-05-06T03:32:59;98222.75;;;9.88;61.28
40918;BME280;26644;50.248;19.032;2023-05-06T03:36:07;98234.50;;;9.99;61.02
40918;BME280;26644;50.248;19.032;2023-05-06T03:39:14;98226.25;;;9.99;61.25
40918;BME280;26644;50.248;19.032;2023-05-06T03:42:19;98232.03;;;9.98;61.02
40918;BME280;26644;50.248;19.032;2023-05-06T03:45:28;98237.00;;;9.95;61.38
40918;BME280;26644;50.248;19.032;2023-05-06T03:48:35;98244.91;;;10.02;60.98
40918;BME280;26644;50.248;19.032;2023-05-06T03:51:44;98240.22;;;10.08;60.95
40918;BME280;26644;50.248;19.032;2023-05-06T03:54:50;98243.25;;;10.06;61.07
40918;BME280;26644;50.248;19.032;2023-05-06T03:57:56;98245.44;;;10.09;60.85
40918;BME280;26644;50.248;19.032;2023-05-06T04:01:03;98251.47;;;10.11;60.89
40918;BME280;26644;50.248;19.032;2023-05-06T04:04:08;98241.31;;;10.12;61.08
40918;BME280;26644;50.248;19.032;2023-05-06T04:07:13;98235.53;;;10.14;61.01
40918;BME280;26644;50.248;19.032;2023-05-06T04:10:19;98247.06;;;10.16;60.93
40918;BME280;26644;50.248;19.032;2023-05-06T04:13:26;98247.56;;;10.18;60.79
40918;BME280;26644;50.248;19.032;2023-05-06T04:16:37;98241.84;;;10.19;60.97
40918;BME280;26644;50.248;19.032;2023-05-06T04:19:41;98236.38;;;10.14;60.96
40918;BME280;26644;50.248;19.032;2023-05-06T04:22:46;98234.44;;;10.15;60.97
40918;BME280;26644;50.248;19.032;2023-05-06T04:25:51;98224.34;;;10.05;61.17
40918;BME280;26644;50.248;19.032;2023-05-06T04:28:59;98236.38;;;10.09;61.38
40918;BME280;26644;50.248;19.032;2023-05-06T04:32:08;98227.59;;;10.12;61.07
40918;BME280;26644;50.248;19.032;2023-05-06T04:35:15;98218.25;;;10.13;61.15
40918;BME280;26644;50.248;19.032;2023-05-06T04:38:20;98222.09;;;10.12;61.16
40918;BME280;26644;50.248;19.032;2023-05-06T04:41:29;98223.16;;;10.16;61.40
40918;BME280;26644;50.248;19.032;2023-05-06T04:44:34;98226.75;;;10.17;61.30
40918;BME280;26644;50.248;19.032;2023-05-06T04:47:46;98223.16;;;10.21;61.15
40918;BME280;26644;50.248;19.032;2023-05-06T04:50:53;98225.59;;;10.23;61.14
40918;BME280;26644;50.248;19.032;2023-05-06T04:53:58;98222.28;;;10.31;61.11
40918;BME280;26644;50.248;19.032;2023-05-06T04:57:03;98224.72;;;10.38;60.99
40918;BME280;26644;50.248;19.032;2023-05-06T05:00:11;98203.59;;;10.33;60.53
40918;BME280;26644;50.248;19.032;2023-05-06T05:03:19;98220.22;;;10.52;60.31
40918;BME280;26644;50.248;19.032;2023-05-06T05:06:24;98238.56;;;10.67;60.34
40918;BME280;26644;50.248;19.032;2023-05-06T05:09:29;98239.06;;;10.74;59.84
40918;BME280;26644;50.248;19.032;2023-05-06T05:12:35;98228.50;;;10.92;59.59
40918;BME280;26644;50.248;19.032;2023-05-06T05:15:40;98230.66;;;11.00;59.44
40918;BME280;26644;50.248;19.032;2023-05-06T05:18:51;98229.69;;;11.15;59.51
40918;BME280;26644;50.248;19.032;2023-05-06T05:22:00;98217.56;;;11.21;58.76
40918;BME280;26644;50.248;19.032;2023-05-06T05:25:08;98222.75;;;11.23;58.21
40918;BME280;26644;50.248;19.032;2023-05-06T05:28:12;98210.88;;;11.27;58.61
40918;BME280;26644;50.248;19.032;2023-05-06T05:31:18;98215.25;;;11.58;58.15
40918;BME280;26644;50.248;19.032;2023-05-06T05:34:26;98213.03;;;12.08;57.13
40918;BME280;26644;50.248;19.032;2023-05-06T05:37:32;98211.47;;;12.65;55.79
40918;BME280;26644;50.248;19.032;2023-05-06T05:40:37;98204.75;;;13.04;53.58
40918;BME280;26644;50.248;19.032;2023-05-06T05:43:43;98208.06;;;13.39;53.09
40918;BME280;26644;50.248;19.032;2023-05-06T05:46:48;98208.06;;;13.53;52.05
40918;BME280;26644;50.248;19.032;2023-05-06T05:49:58;98199.28;;;13.65;51.49
40918;BME280;26644;50.248;19.032;2023-05-06T05:53:04;98198.19;;;13.66;51.16
40918;BME280;26644;50.248;19.032;2023-05-06T05:56:12;98194.31;;;13.67;50.95
40918;BME280;26644;50.248;19.032;2023-05-06T05:59:16;98193.59;;;13.75;50.66
40918;BME280;26644;50.248;19.032;2023-05-06T06:02:24;98189.00;;;13.84;50.36
40918;BME280;26644;50.248;19.032;2023-05-06T06:05:31;98173.25;;;13.85;50.80
40918;BME280;26644;50.248;19.032;2023-05-06T06:08:37;98186.22;;;14.12;50.57
40918;BME280;26644;50.248;19.032;2023-05-06T06:11:42;98187.81;;;14.27;50.11
40918;BME280;26644;50.248;19.032;2023-05-06T06:14:47;98191.78;;;14.35;49.59
40918;BME280;26644;50.248;19.032;2023-05-06T06:17:56;98203.25;;;14.28;49.59
40918;BME280;26644;50.248;19.032;2023-05-06T06:21:06;98193.75;;;14.20;49.74
40918;BME280;26644;50.248;19.032;2023-05-06T06:24:11;98189.28;;;14.10;49.97
40918;BME280;26644;50.248;19.032;2023-05-06T06:27:17;98184.78;;;14.15;50.08
40918;BME280;26644;50.248;19.032;2023-05-06T06:30:22;98185.25;;;14.17;49.92
40918;BME280;26644;50.248;19.032;2023-05-06T06:33:27;98189.88;;;14.07;49.70
40918;BME280;26644;50.248;19.032;2023-05-06T06:36:34;98181.91;;;14.06;49.67
40918;BME280;26644;50.248;19.032;2023-05-06T06:39:41;98184.56;;;14.11;49.67
40918;BME280;26644;50.248;19.032;2023-05-06T06:42:45;98179.25;;;14.15;49.44
40918;BME280;26644;50.248;19.032;2023-05-06T06:46:13;98172.72;;;14.10;49.78
40918;BME280;26644;50.248;19.032;2023-05-06T06:49:17;98168.72;;;14.03;49.79
40918;BME280;26644;50.248;19.032;2023-05-06T06:52:25;98173.53;;;14.11;50.11
40918;BME280;26644;50.248;19.032;2023-05-06T06:55:30;98164.31;;;14.16;49.95
40918;BME280;26644;50.248;19.032;2023-05-06T06:58:35;98155.22;;;14.15;49.97
40918;BME280;26644;50.248;19.032;2023-05-06T07:01:40;98158.13;;;14.33;49.96
40918;BME280;26644;50.248;19.032;2023-05-06T07:04:45;98152.59;;;14.47;49.71
40918;BME280;26644;50.248;19.032;2023-05-06T07:07:52;98141.34;;;14.43;49.68
40918;BME280;26644;50.248;19.032;2023-05-06T07:10:58;98149.53;;;14.48;49.49
40918;BME280;26644;50.248;19.032;2023-05-06T07:14:02;98144.69;;;14.54;49.64
40918;BME280;26644;50.248;19.032;2023-05-06T07:17:07;98134.75;;;14.53;49.57
40918;BME280;26644;50.248;19.032;2023-05-06T07:20:12;98138.00;;;14.69;49.51
40918;BME280;26644;50.248;19.032;2023-05-06T07:23:20;98129.50;;;14.65;49.26
40918;BME280;26644;50.248;19.032;2023-05-06T07:26:25;98137.16;;;14.68;49.41
40918;BME280;26644;50.248;19.032;2023-05-06T07:29:30;98132.47;;;14.69;49.64
40918;BME280;26644;50.248;19.032;2023-05-06T07:32:36;98121.22;;;14.65;49.61
40918;BME280;26644;50.248;19.032;2023-05-06T07:35:42;98128.50;;;14.84;49.59
40918;BME280;26644;50.248;19.032;2023-05-06T07:38:49;98125.66;;;14.98;49.71
40918;BME280;26644;50.248;19.032;2023-05-06T07:41:54;98120.72;;;15.17;49.50
40918;BME280;26644;50.248;19.032;2023-05-06T07:44:58;98138.69;;;15.28;48.86
40918;BME280;26644;50.248;19.032;2023-05-06T07:48:04;98124.16;;;15.23;48.73
40918;BME280;26644;50.248;19.032;2023-05-06T07:51:09;98114.06;;;15.18;48.75
40918;BME280;26644;50.248;19.032;2023-05-06T07:54:17;98126.25;;;15.17;48.82
40918;BME280;26644;50.248;19.032;2023-05-06T07:57:21;98111.25;;;15.09;49.22
40918;BME280;26644;50.248;19.032;2023-05-06T08:00:26;98114.53;;;15.20;49.34
40918;BME280;26644;50.248;19.032;2023-05-06T08:03:31;98116.69;;;15.23;49.19
40918;BME280;26644;50.248;19.032;2023-05-06T08:06:36;98113.56;;;15.16;49.15
40918;BME280;26644;50.248;19.032;2023-05-06T08:09:43;98107.69;;;15.09;49.30
40918;BME280;26644;50.248;19.032;2023-05-06T08:12:49;98103.28;;;15.08;49.41
40918;BME280;26644;50.248;19.032;2023-05-06T08:15:54;98110.44;;;15.09;49.67
40918;BME280;26644;50.248;19.032;2023-05-06T08:18:59;98111.88;;;15.06;49.89
40918;BME280;26644;50.248;19.032;2023-05-06T08:22:04;98118.59;;;15.14;49.90
40918;BME280;26644;50.248;19.032;2023-05-06T08:25:11;98117.63;;;15.19;49.70
40918;BME280;26644;50.248;19.032;2023-05-06T08:28:16;98111.66;;;15.25;49.95
40918;BME280;26644;50.248;19.032;2023-05-06T08:31:22;98114.28;;;15.31;49.71
40918;BME280;26644;50.248;19.032;2023-05-06T08:34:26;98105.78;;;15.27;49.81
40918;BME280;26644;50.248;19.032;2023-05-06T08:37:32;98115.78;;;15.37;49.78
40918;BME280;26644;50.248;19.032;2023-05-06T08:40:42;98105.78;;;15.50;49.93
40918;BME280;26644;50.248;19.032;2023-05-06T08:43:49;98105.97;;;15.62;49.78
40918;BME280;26644;50.248;19.032;2023-05-06T08:46:53;98101.09;;;15.68;49.52
40918;BME280;26644;50.248;19.032;2023-05-06T08:49:59;98100.00;;;15.77;49.60
40918;BME280;26644;50.248;19.032;2023-05-06T08:53:04;98092.34;;;15.83;49.48
40918;BME280;26644;50.248;19.032;2023-05-06T08:56:12;98079.03;;;16.03;49.19
40918;BME280;26644;50.248;19.032;2023-05-06T08:59:19;98088.31;;;16.24;48.56
40918;BME280;26644;50.248;19.032;2023-05-06T09:02:31;98072.34;;;16.30;48.34
40918;BME280;26644;50.248;19.032;2023-05-06T09:05:35;98077.06;;;16.38;48.26
40918;BME280;26644;50.248;19.032;2023-05-06T09:08:40;98074.16;;;16.35;48.17
40918;BME280;26644;50.248;19.032;2023-05-06T09:11:48;98074.28;;;16.38;48.56
40918;BME280;26644;50.248;19.032;2023-05-06T09:14:58;98065.84;;;16.52;48.56
40918;BME280;26644;50.248;19.032;2023-05-06T09:18:02;98067.31;;;16.58;48.06
40918;BME280;26644;50.248;19.032;2023-05-06T09:21:07;98060.94;;;16.58;47.61
40918;BME280;26644;50.248;19.032;2023-05-06T09:24:13;98060.44;;;16.47;47.97
40918;BME280;26644;50.248;19.032;2023-05-06T09:27:23;98064.38;;;16.37;48.47
40918;BME280;26644;50.248;19.032;2023-05-06T09:30:28;98086.19;;;16.30;48.73
40918;BME280;26644;50.248;19.032;2023-05-06T09:33:33;98104.94;;;16.16;49.62
40918;BME280;26644;50.248;19.032;2023-05-06T09:36:39;98103.25;;;15.80;51.39
40918;BME280;26644;50.248;19.032;2023-05-06T09:39:44;98099.38;;;15.40;53.71
40918;BME280;26644;50.248;19.032;2023-05-06T09:42:51;98109.59;;;15.31;54.54
40918;BME280;26644;50.248;19.032;2023-05-06T09:45:56;98109.13;;;15.06;56.11
40918;BME280;26644;50.248;19.032;2023-05-06T09:49:02;98103.69;;;14.70;57.67
40918;BME280;26644;50.248;19.032;2023-05-06T09:52:07;98118.28;;;14.61;59.12
40918;BME280;26644;50.248;19.032;2023-05-06T09:55:12;98110.84;;;14.48;60.41
40918;BME280;26644;50.248;19.032;2023-05-06T09:58:21;98117.44;;;14.24;62.02
40918;BME280;26644;50.248;19.032;2023-05-06T10:01:29;98114.22;;;14.08;63.55
40918;BME280;26644;50.248;19.032;2023-05-06T10:04:37;98107.44;;;13.92;64.76
40918;BME280;26644;50.248;19.032;2023-05-06T10:07:47;98111.22;;;13.82;65.95
40918;BME280;26644;50.248;19.032;2023-05-06T10:10:55;98121.66;;;13.71;66.38
40918;BME280;26644;50.248;19.032;2023-05-06T10:14:03;98122.78;;;13.56;68.02
40918;BME280;26644;50.248;19.032;2023-05-06T10:17:11;98115.03;;;13.44;69.42
40918;BME280;26644;50.248;19.032;2023-05-06T10:20:17;98109.28;;;13.41;70.08
40918;BME280;26644;50.248;19.032;2023-05-06T10:23:34;98089.69;;;13.28;70.73
40918;BME280;26644;50.248;19.032;2023-05-06T10:26:45;98082.69;;;13.17;71.61
40918;BME280;26644;50.248;19.032;2023-05-06T10:29:58;98083.31;;;13.14;72.60
40918;BME280;26644;50.248;19.032;2023-05-06T10:33:04;98076.88;;;13.05;73.56
40918;BME280;26644;50.248;19.032;2023-05-06T10:36:14;98077.41;;;13.07;73.86
40918;BME280;26644;50.248;19.032;2023-05-06T10:39:22;98073.81;;;13.06;74.37
40918;BME280;26644;50.248;19.032;2023-05-06T10:42:32;98074.75;;;13.16;74.19
40918;BME280;26644;50.248;19.032;2023-05-06T10:45:58;98074.94;;;13.19;74.03
40918;BME280;26644;50.248;19.032;2023-05-06T10:49:16;98075.25;;;13.18;73.64
40918;BME280;26644;50.248;19.032;2023-05-06T10:52:25;98075.34;;;13.13;74.12
40918;BME280;26644;50.248;19.032;2023-05-06T10:56:06;98067.06;;;12.99;74.84
40918;BME280;26644;50.248;19.032;2023-05-06T10:59:11;98078.63;;;13.01;75.91
40918;BME280;26644;50.248;19.032;2023-05-06T11:02:19;98064.13;;;12.95;75.89
40918;BME280;26644;50.248;19.032;2023-05-06T11:05:25;98068.88;;;12.89;76.26
40918;BME280;26644;50.248;19.032;2023-05-06T11:08:30;98048.97;;;12.78;77.03
40918;BME280;26644;50.248;19.032;2023-05-06T11:11:57;98051.50;;;12.75;77.45
40918;BME280;26644;50.248;19.032;2023-05-06T11:15:19;98048.34;;;12.68;77.87
40918;BME280;26644;50.248;19.032;2023-05-06T11:18:45;98041.28;;;12.61;78.25
40918;BME280;26644;50.248;19.032;2023-05-06T11:21:51;98053.25;;;12.71;77.96
40918;BME280;26644;50.248;19.032;2023-05-06T11:24:57;98048.03;;;12.69;78.13
40918;BME280;26644;50.248;19.032;2023-05-06T11:28:06;98038.34;;;12.72;78.56
40918;BME280;26644;50.248;19.032;2023-05-06T11:31:12;98043.66;;;12.68;78.91
40918;BME280;26644;50.248;19.032;2023-05-06T11:34:24;98030.56;;;12.60;79.24
40918;BME280;26644;50.248;19.032;2023-05-06T11:37:29;98039.75;;;12.55;79.70
40918;BME280;26644;50.248;19.032;2023-05-06T11:40:34;98044.09;;;12.42;80.67
40918;BME280;26644;50.248;19.032;2023-05-06T11:43:40;98042.34;;;12.33;81.11
40918;BME280;26644;50.248;19.032;2023-05-06T11:46:51;98044.03;;;12.28;81.68
40918;BME280;26644;50.248;19.032;2023-05-06T11:50:02;98049.66;;;12.23;82.48
40918;BME280;26644;50.248;19.032;2023-05-06T11:53:08;98046.44;;;12.16;83.01
40918;BME280;26644;50.248;19.032;2023-05-06T11:56:13;98052.56;;;12.13;83.45
40918;BME280;26644;50.248;19.032;2023-05-06T11:59:27;98047.94;;;12.08;83.85
40918;BME280;26644;50.248;19.032;2023-05-06T12:02:33;98052.19;;;12.01;84.29
40918;BME280;26644;50.248;19.032;2023-05-06T12:05:41;98046.16;;;11.99;84.90
40918;BME280;26644;50.248;19.032;2023-05-06T12:08:48;98039.38;;;11.91;85.38
40918;BME280;26644;50.248;19.032;2023-05-06T12:11:53;98049.78;;;11.94;85.63
40918;BME280;26644;50.248;19.032;2023-05-06T12:14:58;98061.25;;;12.01;85.85
40918;BME280;26644;50.248;19.032;2023-05-06T12:18:04;98076.88;;;12.06;85.96
40918;BME280;26644;50.248;19.032;2023-05-06T12:21:12;98075.03;;;12.01;85.99
40918;BME280;26644;50.248;19.032;2023-05-06T12:24:26;98072.41;;;12.10;85.81
40918;BME280;26644;50.248;19.032;2023-05-06T12:27:32;98073.72;;;11.93;85.49
40918;BME280;26644;50.248;19.032;2023-05-06T12:30:40;98085.53;;;11.94;86.13
40918;BME280;26644;50.248;19.032;2023-05-06T12:33:46;98064.94;;;11.91;86.45
40918;BME280;26644;50.248;19.032;2023-05-06T12:36:55;98073.38;;;12.00;86.20
40918;BME280;26644;50.248;19.032;2023-05-06T12:39:59;98070.56;;;12.05;86.58
40918;BME280;26644;50.248;19.032;2023-05-06T12:43:05;98073.81;;;12.07;86.29
40918;BME280;26644;50.248;19.032;2023-05-06T12:46:10;98078.66;;;12.16;86.68
40918;BME280;26644;50.248;19.032;2023-05-06T12:49:15;98071.44;;;12.20;85.81
40918;BME280;26644;50.248;19.032;2023-05-06T12:52:25;98070.03;;;12.22;86.24
40918;BME280;26644;50.248;19.032;2023-05-06T12:55:33;98059.81;;;12.23;86.55
40918;BME280;26644;50.248;19.032;2023-05-06T12:58:38;98066.91;;;12.29;86.32
40918;BME280;26644;50.248;19.032;2023-05-06T13:01:43;98062.66;;;12.37;86.48
40918;BME280;26644;50.248;19.032;2023-05-06T13:04:48;98060.69;;;12.37;86.11
40918;BME280;26644;50.248;19.032;2023-05-06T13:07:56;98066.53;;;12.50;86.07
40918;BME280;26644;50.248;19.032;2023-05-06T13:11:00;98073.69;;;12.51;85.50
40918;BME280;26644;50.248;19.032;2023-05-06T13:14:05;98069.53;;;12.53;85.79
40918;BME280;26644;50.248;19.032;2023-05-06T13:17:11;98069.75;;;12.57;85.71
40918;BME280;26644;50.248;19.032;2023-05-06T13:20:17;98080.16;;;12.60;85.54
40918;BME280;26644;50.248;19.032;2023-05-06T13:23:24;98082.81;;;12.65;85.88
40918;BME280;26644;50.248;19.032;2023-05-06T13:26:29;98082.44;;;12.72;86.27
40918;BME280;26644;50.248;19.032;2023-05-06T13:29:33;98047.63;;;12.62;86.14
40918;BME280;26644;50.248;19.032;2023-05-06T13:32:39;98071.34;;;12.91;86.40
40918;BME280;26644;50.248;19.032;2023-05-06T13:35:43;98070.75;;;13.08;86.18
40918;BME280;26644;50.248;19.032;2023-05-06T13:38:51;98073.31;;;13.18;85.34
40918;BME280;26644;50.248;19.032;2023-05-06T13:41:56;98071.28;;;13.24;85.19
40918;BME280;26644;50.248;19.032;2023-05-06T13:45:04;98070.88;;;13.17;84.77
40918;BME280;26644;50.248;19.032;2023-05-06T13:48:10;98072.78;;;13.16;84.84
40918;BME280;26644;50.248;19.032;2023-05-06T13:51:15;98079.25;;;13.25;84.64
40918;BME280;26644;50.248;19.032;2023-05-06T13:54:22;98069.56;;;13.28;84.72
40918;BME280;26644;50.248;19.032;2023-05-06T13:57:28;98066.69;;;13.33;84.08
40918;BME280;26644;50.248;19.032;2023-05-06T14:00:33;98076.09;;;13.60;84.47
40918;BME280;26644;50.248;19.032;2023-05-06T14:03:39;98068.38;;;13.85;84.05
40918;BME280;26644;50.248;19.032;2023-05-06T14:06:43;98067.63;;;14.07;82.44
40918;BME280;26644;50.248;19.032;2023-05-06T14:09:51;98066.94;;;14.24;81.39
40918;BME280;26644;50.248;19.032;2023-05-06T14:12:56;98076.94;;;14.34;79.67
40918;BME280;26644;50.248;19.032;2023-05-06T14:16:01;98077.84;;;14.43;79.76
40918;BME280;26644;50.248;19.032;2023-05-06T14:19:06;98074.63;;;14.50;79.38
40918;BME280;26644;50.248;19.032;2023-05-06T14:22:11;98074.31;;;14.51;79.46
40918;BME280;26644;50.248;19.032;2023-05-06T14:25:18;98070.81;;;14.59;78.96
40918;BME280;26644;50.248;19.032;2023-05-06T14:28:27;98070.53;;;14.70;78.16
40918;BME280;26644;50.248;19.032;2023-05-06T14:31:32;98068.03;;;14.82;78.18
40918;BME280;26644;50.248;19.032;2023-05-06T14:34:38;98074.78;;;14.99;77.80
40918;BME280;26644;50.248;19.032;2023-05-06T14:37:42;98059.84;;;15.08;77.06
40918;BME280;26644;50.248;19.032;2023-05-06T14:40:50;98056.66;;;15.15;75.92
40918;BME280;26644;50.248;19.032;2023-05-06T14:43:54;98057.63;;;15.19;75.14
40918;BME280;26644;50.248;19.032;2023-05-06T14:47:00;98054.88;;;15.28;75.31
40918;BME280;26644;50.248;19.032;2023-05-06T14:50:06;98060.94;;;15.30;75.10
40918;BME280;26644;50.248;19.032;2023-05-06T14:53:13;98054.94;;;15.37;75.80
40918;BME280;26644;50.248;19.032;2023-05-06T14:56:20;98058.88;;;15.44;75.38
40918;BME280;26644;50.248;19.032;2023-05-06T14:59:26;98064.41;;;15.44;74.10
40918;BME280;26644;50.248;19.032;2023-05-06T15:02:31;98055.44;;;15.48;73.72
40918;BME280;26644;50.248;19.032;2023-05-06T15:05:36;98067.63;;;15.47;73.03
40918;BME280;26644;50.248;19.032;2023-05-06T15:08:40;98066.84;;;15.46;72.94
40918;BME280;26644;50.248;19.032;2023-05-06T15:11:48;98079.22;;;15.49;73.57
40918;BME280;26644;50.248;19.032;2023-05-06T15:14:53;98078.59;;;15.52;73.31
40918;BME280;26644;50.248;19.032;2023-05-06T15:17:58;98075.59;;;15.48;72.29
40918;BME280;26644;50.248;19.032;2023-05-06T15:21:03;98074.78;;;15.39;71.04
40918;BME280;26644;50.248;19.032;2023-05-06T15:24:08;98065.41;;;15.17;70.76
40918;BME280;26644;50.248;19.032;2023-05-06T15:27:15;98082.81;;;15.18;71.63
40918;BME280;26644;50.248;19.032;2023-05-06T15:30:20;98073.06;;;15.11;72.03
40918;BME280;26644;50.248;19.032;2023-05-06T15:33:25;98084.63;;;15.22;72.09
40918;BME280;26644;50.248;19.032;2023-05-06T15:36:30;98078.78;;;15.24;72.08
40918;BME280;26644;50.248;19.032;2023-05-06T15:39:35;98084.31;;;15.24;71.82
40918;BME280;26644;50.248;19.032;2023-05-06T15:42:43;98087.91;;;15.24;71.67
40918;BME280;26644;50.248;19.032;2023-05-06T15:45:48;98095.50;;;15.19;71.64
40918;BME280;26644;50.248;19.032;2023-05-06T15:48:53;98094.91;;;15.22;71.79
40918;BME280;26644;50.248;19.032;2023-05-06T15:51:58;98089.53;;;15.25;72.03
40918;BME280;26644;50.248;19.032;2023-05-06T15:55:04;98094.25;;;15.25;71.42
40918;BME280;26644;50.248;19.032;2023-05-06T15:58:12;98080.75;;;15.23;71.63
40918;BME280;26644;50.248;19.032;2023-05-06T16:01:17;98093.28;;;15.30;71.78
40918;BME280;26644;50.248;19.032;2023-05-06T16:04:22;98096.41;;;15.37;71.47
40918;BME280;26644;50.248;19.032;2023-05-06T16:07:27;98098.06;;;15.38;71.29
40918;BME280;26644;50.248;19.032;2023-05-06T16:10:32;98089.38;;;15.31;70.76
40918;BME280;26644;50.248;19.032;2023-05-06T16:13:40;98093.00;;;15.31;70.71
40918;BME280;26644;50.248;19.032;2023-05-06T16:16:46;98103.88;;;15.27;71.20